<?xml version="1.0" encoding="UTF-8" standalone="no" ?>
<gpx xmlns="http://www.topografix.com/GPX/1/1" xmlns:xsi="http://www.w3.org/2001/XMLSchema-instance" xsi:schemaLocation="http://www.topografix.com/GPX/1/1 http://www.topografix.com/GPX/1/1/gpx.xsd" version="1.1" creator="VisuGPX - https://www.visugpx.com">
  <metadata>
    <name>Mont ceint (2088m) depuis l'Etang de Lers (1275m)</name>
  </metadata>
  <trk>
    <name><![CDATA[Mont Ceint / Pic de Girantès ]]></name>
    <trkseg>
      <trkpt lat="42.80846" lon="1.38075">
        <ele>1299.09731</ele>
        <time>2024-03-06T08:38:04Z</time>
      </trkpt>
      <trkpt lat="42.80837" lon="1.38048">
        <ele>1301.52744</ele>
        <time>2024-03-06T08:43:28Z</time>
      </trkpt>
      <trkpt lat="42.80831" lon="1.38055">
        <ele>1301.53858</ele>
        <time>2024-03-06T08:45:05Z</time>
      </trkpt>
      <trkpt lat="42.80844" lon="1.38018">
        <ele>1301.27261</ele>
        <time>2024-03-06T08:46:04Z</time>
      </trkpt>
      <trkpt lat="42.80836" lon="1.3801">
        <ele>1300.76432</ele>
        <time>2024-03-06T08:46:11Z</time>
      </trkpt>
      <trkpt lat="42.80852" lon="1.37982">
        <ele>1297.5766</ele>
        <time>2024-03-06T08:46:21Z</time>
      </trkpt>
      <trkpt lat="42.80834" lon="1.37952">
        <ele>1293.10596</ele>
        <time>2024-03-06T08:46:31Z</time>
      </trkpt>
      <trkpt lat="42.80834" lon="1.37926">
        <ele>1292.03259</ele>
        <time>2024-03-06T08:46:41Z</time>
      </trkpt>
      <trkpt lat="42.80841" lon="1.37905">
        <ele>1291.35658</ele>
        <time>2024-03-06T08:46:49Z</time>
      </trkpt>
      <trkpt lat="42.80836" lon="1.37875">
        <ele>1290.41806</ele>
        <time>2024-03-06T08:47:00Z</time>
      </trkpt>
      <trkpt lat="42.80856" lon="1.37828">
        <ele>1287.96149</ele>
        <time>2024-03-06T08:47:19Z</time>
      </trkpt>
      <trkpt lat="42.80857" lon="1.37814">
        <ele>1286.99467</ele>
        <time>2024-03-06T08:47:23Z</time>
      </trkpt>
      <trkpt lat="42.80851" lon="1.37801">
        <ele>1286.27979</ele>
        <time>2024-03-06T08:47:27Z</time>
      </trkpt>
      <trkpt lat="42.80857" lon="1.37782">
        <ele>1285.38476</ele>
        <time>2024-03-06T08:47:37Z</time>
      </trkpt>
      <trkpt lat="42.80854" lon="1.37723">
        <ele>1283.67656</ele>
        <time>2024-03-06T08:47:54Z</time>
      </trkpt>
      <trkpt lat="42.80868" lon="1.37673">
        <ele>1282.73284</ele>
        <time>2024-03-06T08:48:16Z</time>
      </trkpt>
      <trkpt lat="42.80875" lon="1.37614">
        <ele>1282.10106</ele>
        <time>2024-03-06T08:48:39Z</time>
      </trkpt>
      <trkpt lat="42.80853" lon="1.37569">
        <ele>1281.26513</ele>
        <time>2024-03-06T08:49:45Z</time>
      </trkpt>
      <trkpt lat="42.80852" lon="1.3751">
        <ele>1279.50305</ele>
        <time>2024-03-06T08:49:58Z</time>
      </trkpt>
      <trkpt lat="42.80838" lon="1.37464">
        <ele>1278.56846</ele>
        <time>2024-03-06T08:50:25Z</time>
      </trkpt>
      <trkpt lat="42.80824" lon="1.37434">
        <ele>1278.21366</ele>
        <time>2024-03-06T08:50:40Z</time>
      </trkpt>
      <trkpt lat="42.80818" lon="1.37432">
        <ele>1277.9427</ele>
        <time>2024-03-06T08:54:00Z</time>
      </trkpt>
      <trkpt lat="42.80823" lon="1.37431">
        <ele>1277.58193</ele>
        <time>2024-03-06T08:54:59Z</time>
      </trkpt>
      <trkpt lat="42.8082" lon="1.37435">
        <ele>1277.22816</ele>
        <time>2024-03-06T08:55:56Z</time>
      </trkpt>
      <trkpt lat="42.80804" lon="1.37413">
        <ele>1276.63715</ele>
        <time>2024-03-06T08:57:35Z</time>
      </trkpt>
      <trkpt lat="42.80737" lon="1.37379">
        <ele>1277.00054</ele>
        <time>2024-03-06T08:58:52Z</time>
      </trkpt>
      <trkpt lat="42.80723" lon="1.3736">
        <ele>1278.02531</ele>
        <time>2024-03-06T08:59:15Z</time>
      </trkpt>
      <trkpt lat="42.80702" lon="1.37292">
        <ele>1287.25829</ele>
        <time>2024-03-06T09:00:21Z</time>
      </trkpt>
      <trkpt lat="42.80654" lon="1.37254">
        <ele>1294.19949</ele>
        <time>2024-03-06T09:01:31Z</time>
      </trkpt>
      <trkpt lat="42.80624" lon="1.37245">
        <ele>1297.45506</ele>
        <time>2024-03-06T09:02:17Z</time>
      </trkpt>
      <trkpt lat="42.8061" lon="1.37224">
        <ele>1301.48394</ele>
        <time>2024-03-06T09:02:44Z</time>
      </trkpt>
      <trkpt lat="42.8059" lon="1.37223">
        <ele>1302.93585</ele>
        <time>2024-03-06T09:03:08Z</time>
      </trkpt>
      <trkpt lat="42.80542" lon="1.37241">
        <ele>1302.57653</ele>
        <time>2024-03-06T09:03:54Z</time>
      </trkpt>
      <trkpt lat="42.80526" lon="1.37253">
        <ele>1302.53368</ele>
        <time>2024-03-06T09:04:14Z</time>
      </trkpt>
      <trkpt lat="42.80514" lon="1.37277">
        <ele>1302.65636</ele>
        <time>2024-03-06T09:04:33Z</time>
      </trkpt>
      <trkpt lat="42.80498" lon="1.37288">
        <ele>1303.00713</ele>
        <time>2024-03-06T09:04:55Z</time>
      </trkpt>
      <trkpt lat="42.8045" lon="1.3729">
        <ele>1305.8537</ele>
        <time>2024-03-06T09:05:55Z</time>
      </trkpt>
      <trkpt lat="42.80447" lon="1.37294">
        <ele>1307.58078</ele>
        <time>2024-03-06T09:06:03Z</time>
      </trkpt>
      <trkpt lat="42.8046" lon="1.37315">
        <ele>1314.49279</ele>
        <time>2024-03-06T09:06:33Z</time>
      </trkpt>
      <trkpt lat="42.80422" lon="1.37324">
        <ele>1323.60368</ele>
        <time>2024-03-06T09:07:45Z</time>
      </trkpt>
      <trkpt lat="42.8039" lon="1.37316">
        <ele>1327.00809</ele>
        <time>2024-03-06T09:08:22Z</time>
      </trkpt>
      <trkpt lat="42.80377" lon="1.37325">
        <ele>1327.64386</ele>
        <time>2024-03-06T09:08:38Z</time>
      </trkpt>
      <trkpt lat="42.80356" lon="1.3732">
        <ele>1327.24672</ele>
        <time>2024-03-06T09:08:55Z</time>
      </trkpt>
      <trkpt lat="42.80341" lon="1.37326">
        <ele>1327.54958</ele>
        <time>2024-03-06T09:09:34Z</time>
      </trkpt>
      <trkpt lat="42.80335" lon="1.37336">
        <ele>1328.09844</ele>
        <time>2024-03-06T09:09:49Z</time>
      </trkpt>
      <trkpt lat="42.8035" lon="1.37355">
        <ele>1331.87787</ele>
        <time>2024-03-06T09:10:23Z</time>
      </trkpt>
      <trkpt lat="42.80348" lon="1.3736">
        <ele>1333.80325</ele>
        <time>2024-03-06T09:10:35Z</time>
      </trkpt>
      <trkpt lat="42.80322" lon="1.37371">
        <ele>1345.95166</ele>
        <time>2024-03-06T09:11:32Z</time>
      </trkpt>
      <trkpt lat="42.80325" lon="1.37388">
        <ele>1351.00782</ele>
        <time>2024-03-06T09:11:48Z</time>
      </trkpt>
      <trkpt lat="42.8035" lon="1.37389">
        <ele>1359.87154</ele>
        <time>2024-03-06T09:12:22Z</time>
      </trkpt>
      <trkpt lat="42.80341" lon="1.37393">
        <ele>1360.30577</ele>
        <time>2024-03-06T09:12:44Z</time>
      </trkpt>
      <trkpt lat="42.80349" lon="1.37405">
        <ele>1360.53101</ele>
        <time>2024-03-06T09:13:08Z</time>
      </trkpt>
      <trkpt lat="42.80341" lon="1.37409">
        <ele>1362.223</ele>
        <time>2024-03-06T09:13:34Z</time>
      </trkpt>
      <trkpt lat="42.80338" lon="1.37425">
        <ele>1364.62976</ele>
        <time>2024-03-06T09:14:37Z</time>
      </trkpt>
      <trkpt lat="42.80313" lon="1.37476">
        <ele>1368.77603</ele>
        <time>2024-03-06T09:15:19Z</time>
      </trkpt>
      <trkpt lat="42.80291" lon="1.37507">
        <ele>1371.63214</ele>
        <time>2024-03-06T09:15:52Z</time>
      </trkpt>
      <trkpt lat="42.80311" lon="1.3754">
        <ele>1375.16181</ele>
        <time>2024-03-06T09:16:29Z</time>
      </trkpt>
      <trkpt lat="42.80327" lon="1.37544">
        <ele>1377.43936</ele>
        <time>2024-03-06T09:16:48Z</time>
      </trkpt>
      <trkpt lat="42.8034" lon="1.37524">
        <ele>1380.0712</ele>
        <time>2024-03-06T09:17:15Z</time>
      </trkpt>
      <trkpt lat="42.80342" lon="1.37529">
        <ele>1380.81559</ele>
        <time>2024-03-06T09:17:26Z</time>
      </trkpt>
      <trkpt lat="42.80316" lon="1.37615">
        <ele>1386.27394</ele>
        <time>2024-03-06T09:18:42Z</time>
      </trkpt>
      <trkpt lat="42.80307" lon="1.37632">
        <ele>1386.54626</ele>
        <time>2024-03-06T09:18:57Z</time>
      </trkpt>
      <trkpt lat="42.8031" lon="1.37638">
        <ele>1386.61566</ele>
        <time>2024-03-06T09:19:11Z</time>
      </trkpt>
      <trkpt lat="42.80307" lon="1.3766">
        <ele>1386.89785</ele>
        <time>2024-03-06T09:19:37Z</time>
      </trkpt>
      <trkpt lat="42.8029" lon="1.37728">
        <ele>1393.38291</ele>
        <time>2024-03-06T09:20:46Z</time>
      </trkpt>
      <trkpt lat="42.80288" lon="1.37743">
        <ele>1397.6674</ele>
        <time>2024-03-06T09:21:06Z</time>
      </trkpt>
      <trkpt lat="42.80295" lon="1.37752">
        <ele>1401.70008</ele>
        <time>2024-03-06T09:21:32Z</time>
      </trkpt>
      <trkpt lat="42.80279" lon="1.37767">
        <ele>1407.30406</ele>
        <time>2024-03-06T09:22:03Z</time>
      </trkpt>
      <trkpt lat="42.80273" lon="1.37779">
        <ele>1412.7477</ele>
        <time>2024-03-06T09:22:25Z</time>
      </trkpt>
      <trkpt lat="42.8027" lon="1.37812">
        <ele>1421.95389</ele>
        <time>2024-03-06T09:23:11Z</time>
      </trkpt>
      <trkpt lat="42.80264" lon="1.37812">
        <ele>1423.24989</ele>
        <time>2024-03-06T09:23:16Z</time>
      </trkpt>
      <trkpt lat="42.8027" lon="1.37821">
        <ele>1425.80992</ele>
        <time>2024-03-06T09:24:00Z</time>
      </trkpt>
      <trkpt lat="42.80259" lon="1.37848">
        <ele>1429.59601</ele>
        <time>2024-03-06T09:24:46Z</time>
      </trkpt>
      <trkpt lat="42.80253" lon="1.37889">
        <ele>1433.53688</ele>
        <time>2024-03-06T09:25:40Z</time>
      </trkpt>
      <trkpt lat="42.80258" lon="1.37907">
        <ele>1436.70766</ele>
        <time>2024-03-06T09:26:04Z</time>
      </trkpt>
      <trkpt lat="42.80269" lon="1.37908">
        <ele>1439.11283</ele>
        <time>2024-03-06T09:26:19Z</time>
      </trkpt>
      <trkpt lat="42.8027" lon="1.37915">
        <ele>1440.61918</ele>
        <time>2024-03-06T09:26:26Z</time>
      </trkpt>
      <trkpt lat="42.80252" lon="1.37946">
        <ele>1447.75279</ele>
        <time>2024-03-06T09:27:14Z</time>
      </trkpt>
      <trkpt lat="42.8026" lon="1.37968">
        <ele>1447.12501</ele>
        <time>2024-03-06T09:27:23Z</time>
      </trkpt>
      <trkpt lat="42.80276" lon="1.37985">
        <ele>1446.44796</ele>
        <time>2024-03-06T09:28:32Z</time>
      </trkpt>
      <trkpt lat="42.8027" lon="1.38011">
        <ele>1445.35</ele>
        <time>2024-03-06T09:28:42Z</time>
      </trkpt>
      <trkpt lat="42.80235" lon="1.38045">
        <ele>1443.14239</ele>
        <time>2024-03-06T09:29:17Z</time>
      </trkpt>
      <trkpt lat="42.8022" lon="1.38086">
        <ele>1443.05123</ele>
        <time>2024-03-06T09:29:47Z</time>
      </trkpt>
      <trkpt lat="42.80211" lon="1.38096">
        <ele>1442.87612</ele>
        <time>2024-03-06T09:30:19Z</time>
      </trkpt>
      <trkpt lat="42.80183" lon="1.38099">
        <ele>1441.68574</ele>
        <time>2024-03-06T09:30:33Z</time>
      </trkpt>
      <trkpt lat="42.80159" lon="1.38125">
        <ele>1437.97295</ele>
        <time>2024-03-06T09:30:42Z</time>
      </trkpt>
      <trkpt lat="42.80121" lon="1.38135">
        <ele>1429.29426</ele>
        <time>2024-03-06T09:30:55Z</time>
      </trkpt>
      <trkpt lat="42.80102" lon="1.38165">
        <ele>1424.48174</ele>
        <time>2024-03-06T09:31:12Z</time>
      </trkpt>
      <trkpt lat="42.80078" lon="1.38171">
        <ele>1423.64572</ele>
        <time>2024-03-06T09:31:47Z</time>
      </trkpt>
      <trkpt lat="42.80071" lon="1.38204">
        <ele>1423.3559</ele>
        <time>2024-03-06T09:32:11Z</time>
      </trkpt>
      <trkpt lat="42.80057" lon="1.38213">
        <ele>1423.13863</ele>
        <time>2024-03-06T09:32:25Z</time>
      </trkpt>
      <trkpt lat="42.80008" lon="1.38277">
        <ele>1429.15865</ele>
        <time>2024-03-06T09:33:37Z</time>
      </trkpt>
      <trkpt lat="42.80005" lon="1.38291">
        <ele>1433.28647</ele>
        <time>2024-03-06T09:33:52Z</time>
      </trkpt>
      <trkpt lat="42.80018" lon="1.38313">
        <ele>1438.79996</ele>
        <time>2024-03-06T09:34:28Z</time>
      </trkpt>
      <trkpt lat="42.80007" lon="1.38364">
        <ele>1443.74892</ele>
        <time>2024-03-06T09:35:18Z</time>
      </trkpt>
      <trkpt lat="42.79969" lon="1.38359">
        <ele>1449.88559</ele>
        <time>2024-03-06T09:36:14Z</time>
      </trkpt>
      <trkpt lat="42.79966" lon="1.38372">
        <ele>1449.29507</ele>
        <time>2024-03-06T09:37:54Z</time>
      </trkpt>
      <trkpt lat="42.79951" lon="1.38373">
        <ele>1448.64231</ele>
        <time>2024-03-06T09:39:46Z</time>
      </trkpt>
      <trkpt lat="42.79926" lon="1.38399">
        <ele>1447.75949</ele>
        <time>2024-03-06T09:40:08Z</time>
      </trkpt>
      <trkpt lat="42.79901" lon="1.38406">
        <ele>1447.84658</ele>
        <time>2024-03-06T09:40:40Z</time>
      </trkpt>
      <trkpt lat="42.79874" lon="1.38436">
        <ele>1450.71887</ele>
        <time>2024-03-06T09:41:31Z</time>
      </trkpt>
      <trkpt lat="42.7986" lon="1.38439">
        <ele>1453.30693</ele>
        <time>2024-03-06T09:41:48Z</time>
      </trkpt>
      <trkpt lat="42.79858" lon="1.38451">
        <ele>1455.46744</ele>
        <time>2024-03-06T09:41:59Z</time>
      </trkpt>
      <trkpt lat="42.79836" lon="1.38458">
        <ele>1458.33041</ele>
        <time>2024-03-06T09:42:15Z</time>
      </trkpt>
      <trkpt lat="42.79815" lon="1.38451">
        <ele>1460.22028</ele>
        <time>2024-03-06T09:42:37Z</time>
      </trkpt>
      <trkpt lat="42.79772" lon="1.3846">
        <ele>1463.33495</ele>
        <time>2024-03-06T09:43:21Z</time>
      </trkpt>
      <trkpt lat="42.79773" lon="1.38473">
        <ele>1464.4926</ele>
        <time>2024-03-06T09:43:32Z</time>
      </trkpt>
      <trkpt lat="42.79781" lon="1.38473">
        <ele>1465.57708</ele>
        <time>2024-03-06T09:43:41Z</time>
      </trkpt>
      <trkpt lat="42.79765" lon="1.38482">
        <ele>1467.17318</ele>
        <time>2024-03-06T09:44:22Z</time>
      </trkpt>
      <trkpt lat="42.79745" lon="1.38524">
        <ele>1473.29193</ele>
        <time>2024-03-06T09:45:22Z</time>
      </trkpt>
      <trkpt lat="42.79726" lon="1.38523">
        <ele>1476.19837</ele>
        <time>2024-03-06T09:45:46Z</time>
      </trkpt>
      <trkpt lat="42.79722" lon="1.38536">
        <ele>1477.62524</ele>
        <time>2024-03-06T09:46:09Z</time>
      </trkpt>
      <trkpt lat="42.79728" lon="1.38548">
        <ele>1478.90497</ele>
        <time>2024-03-06T09:46:19Z</time>
      </trkpt>
      <trkpt lat="42.79698" lon="1.38588">
        <ele>1485.68022</ele>
        <time>2024-03-06T09:47:12Z</time>
      </trkpt>
      <trkpt lat="42.79701" lon="1.38594">
        <ele>1486.2756</ele>
        <time>2024-03-06T09:47:21Z</time>
      </trkpt>
      <trkpt lat="42.79691" lon="1.38597">
        <ele>1488.05382</ele>
        <time>2024-03-06T09:47:33Z</time>
      </trkpt>
      <trkpt lat="42.79687" lon="1.38609">
        <ele>1489.90097</ele>
        <time>2024-03-06T09:47:44Z</time>
      </trkpt>
      <trkpt lat="42.79668" lon="1.38607">
        <ele>1492.13958</ele>
        <time>2024-03-06T09:48:08Z</time>
      </trkpt>
      <trkpt lat="42.79655" lon="1.38661">
        <ele>1498.20975</ele>
        <time>2024-03-06T09:49:01Z</time>
      </trkpt>
      <trkpt lat="42.7966" lon="1.38689">
        <ele>1502.59834</ele>
        <time>2024-03-06T09:49:29Z</time>
      </trkpt>
      <trkpt lat="42.79649" lon="1.387">
        <ele>1508.68005</ele>
        <time>2024-03-06T09:49:53Z</time>
      </trkpt>
      <trkpt lat="42.79648" lon="1.38718">
        <ele>1513.19894</ele>
        <time>2024-03-06T09:50:45Z</time>
      </trkpt>
      <trkpt lat="42.79634" lon="1.3874">
        <ele>1514.92988</ele>
        <time>2024-03-06T09:51:14Z</time>
      </trkpt>
      <trkpt lat="42.79622" lon="1.38787">
        <ele>1525.48365</ele>
        <time>2024-03-06T09:52:16Z</time>
      </trkpt>
      <trkpt lat="42.79629" lon="1.38797">
        <ele>1530.45783</ele>
        <time>2024-03-06T09:52:31Z</time>
      </trkpt>
      <trkpt lat="42.79613" lon="1.38925">
        <ele>1536.51491</ele>
        <time>2024-03-06T09:54:54Z</time>
      </trkpt>
      <trkpt lat="42.79617" lon="1.38939">
        <ele>1536.86161</ele>
        <time>2024-03-06T09:55:12Z</time>
      </trkpt>
      <trkpt lat="42.79603" lon="1.38955">
        <ele>1537.59589</ele>
        <time>2024-03-06T09:55:40Z</time>
      </trkpt>
      <trkpt lat="42.79597" lon="1.38953">
        <ele>1537.96693</ele>
        <time>2024-03-06T09:55:44Z</time>
      </trkpt>
      <trkpt lat="42.79591" lon="1.38964">
        <ele>1539.92469</ele>
        <time>2024-03-06T09:56:03Z</time>
      </trkpt>
      <trkpt lat="42.79611" lon="1.38995">
        <ele>1552.35672</ele>
        <time>2024-03-06T10:01:55Z</time>
      </trkpt>
      <trkpt lat="42.79599" lon="1.39064">
        <ele>1552.17606</ele>
        <time>2024-03-06T10:02:30Z</time>
      </trkpt>
      <trkpt lat="42.79589" lon="1.39081">
        <ele>1553.28072</ele>
        <time>2024-03-06T10:02:49Z</time>
      </trkpt>
      <trkpt lat="42.79556" lon="1.39186">
        <ele>1556.52144</ele>
        <time>2024-03-06T10:04:26Z</time>
      </trkpt>
      <trkpt lat="42.79526" lon="1.39328">
        <ele>1576.0781</ele>
        <time>2024-03-06T10:06:50Z</time>
      </trkpt>
      <trkpt lat="42.79525" lon="1.39376">
        <ele>1579.42127</ele>
        <time>2024-03-06T10:07:47Z</time>
      </trkpt>
      <trkpt lat="42.79518" lon="1.39384">
        <ele>1581.28621</ele>
        <time>2024-03-06T10:08:05Z</time>
      </trkpt>
      <trkpt lat="42.79518" lon="1.39395">
        <ele>1585.85093</ele>
        <time>2024-03-06T10:08:40Z</time>
      </trkpt>
      <trkpt lat="42.79509" lon="1.39398">
        <ele>1586.94854</ele>
        <time>2024-03-06T10:08:59Z</time>
      </trkpt>
      <trkpt lat="42.79482" lon="1.39433">
        <ele>1598.52469</ele>
        <time>2024-03-06T10:10:00Z</time>
      </trkpt>
      <trkpt lat="42.79474" lon="1.39472">
        <ele>1606.26095</ele>
        <time>2024-03-06T10:10:50Z</time>
      </trkpt>
      <trkpt lat="42.7946" lon="1.39483">
        <ele>1611.14454</ele>
        <time>2024-03-06T10:11:54Z</time>
      </trkpt>
      <trkpt lat="42.79449" lon="1.3951">
        <ele>1616.65733</ele>
        <time>2024-03-06T10:12:53Z</time>
      </trkpt>
      <trkpt lat="42.79429" lon="1.39534">
        <ele>1619.48964</ele>
        <time>2024-03-06T10:13:54Z</time>
      </trkpt>
      <trkpt lat="42.79419" lon="1.39566">
        <ele>1622.50646</ele>
        <time>2024-03-06T10:14:32Z</time>
      </trkpt>
      <trkpt lat="42.79411" lon="1.39574">
        <ele>1624.00486</ele>
        <time>2024-03-06T10:15:22Z</time>
      </trkpt>
      <trkpt lat="42.79416" lon="1.39597">
        <ele>1628.49757</ele>
        <time>2024-03-06T10:16:00Z</time>
      </trkpt>
      <trkpt lat="42.79406" lon="1.39605">
        <ele>1633.32399</ele>
        <time>2024-03-06T10:16:32Z</time>
      </trkpt>
      <trkpt lat="42.79407" lon="1.39664">
        <ele>1642.75621</ele>
        <time>2024-03-06T10:18:22Z</time>
      </trkpt>
      <trkpt lat="42.79403" lon="1.39711">
        <ele>1650.70029</ele>
        <time>2024-03-06T10:19:15Z</time>
      </trkpt>
      <trkpt lat="42.79382" lon="1.39776">
        <ele>1664.89463</ele>
        <time>2024-03-06T10:21:11Z</time>
      </trkpt>
      <trkpt lat="42.79406" lon="1.39819">
        <ele>1678.62349</ele>
        <time>2024-03-06T10:22:57Z</time>
      </trkpt>
      <trkpt lat="42.79429" lon="1.39829">
        <ele>1684.56933</ele>
        <time>2024-03-06T10:23:35Z</time>
      </trkpt>
      <trkpt lat="42.79434" lon="1.39849">
        <ele>1688.25272</ele>
        <time>2024-03-06T10:24:04Z</time>
      </trkpt>
      <trkpt lat="42.79465" lon="1.39897">
        <ele>1699.61428</ele>
        <time>2024-03-06T10:25:19Z</time>
      </trkpt>
      <trkpt lat="42.79468" lon="1.39931">
        <ele>1705.78985</ele>
        <time>2024-03-06T10:25:56Z</time>
      </trkpt>
      <trkpt lat="42.79492" lon="1.39917">
        <ele>1714.23282</ele>
        <time>2024-03-06T10:26:39Z</time>
      </trkpt>
      <trkpt lat="42.79489" lon="1.39959">
        <ele>1728.89925</ele>
        <time>2024-03-06T10:29:26Z</time>
      </trkpt>
      <trkpt lat="42.79503" lon="1.39961">
        <ele>1731.9828</ele>
        <time>2024-03-06T10:29:50Z</time>
      </trkpt>
      <trkpt lat="42.79534" lon="1.39998">
        <ele>1748.96333</ele>
        <time>2024-03-06T10:30:52Z</time>
      </trkpt>
      <trkpt lat="42.79582" lon="1.40016">
        <ele>1755.57485</ele>
        <time>2024-03-06T10:32:00Z</time>
      </trkpt>
      <trkpt lat="42.7961" lon="1.40065">
        <ele>1766.84582</ele>
        <time>2024-03-06T10:33:26Z</time>
      </trkpt>
      <trkpt lat="42.79613" lon="1.40114">
        <ele>1776.77484</ele>
        <time>2024-03-06T10:34:33Z</time>
      </trkpt>
      <trkpt lat="42.79607" lon="1.40141">
        <ele>1789.02331</ele>
        <time>2024-03-06T10:36:53Z</time>
      </trkpt>
      <trkpt lat="42.79614" lon="1.40155">
        <ele>1793.95227</ele>
        <time>2024-03-06T10:37:29Z</time>
      </trkpt>
      <trkpt lat="42.79574" lon="1.40183">
        <ele>1805.69914</ele>
        <time>2024-03-06T10:39:05Z</time>
      </trkpt>
      <trkpt lat="42.79571" lon="1.40193">
        <ele>1810.09873</ele>
        <time>2024-03-06T10:39:24Z</time>
      </trkpt>
      <trkpt lat="42.79551" lon="1.40197">
        <ele>1816.22404</ele>
        <time>2024-03-06T10:40:11Z</time>
      </trkpt>
      <trkpt lat="42.7955" lon="1.40212">
        <ele>1819.29217</ele>
        <time>2024-03-06T10:40:28Z</time>
      </trkpt>
      <trkpt lat="42.79562" lon="1.40231">
        <ele>1823.94434</ele>
        <time>2024-03-06T10:41:00Z</time>
      </trkpt>
      <trkpt lat="42.7956" lon="1.40237">
        <ele>1825.98202</ele>
        <time>2024-03-06T10:41:14Z</time>
      </trkpt>
      <trkpt lat="42.79549" lon="1.40238">
        <ele>1830.50092</ele>
        <time>2024-03-06T10:41:33Z</time>
      </trkpt>
      <trkpt lat="42.79571" lon="1.40278">
        <ele>1845.31506</ele>
        <time>2024-03-06T10:43:06Z</time>
      </trkpt>
      <trkpt lat="42.79592" lon="1.40298">
        <ele>1852.08294</ele>
        <time>2024-03-06T10:43:48Z</time>
      </trkpt>
      <trkpt lat="42.79622" lon="1.40302">
        <ele>1859.0904</ele>
        <time>2024-03-06T10:45:08Z</time>
      </trkpt>
      <trkpt lat="42.79635" lon="1.40312">
        <ele>1860.82922</ele>
        <time>2024-03-06T10:45:32Z</time>
      </trkpt>
      <trkpt lat="42.79616" lon="1.40335">
        <ele>1870.03691</ele>
        <time>2024-03-06T10:46:42Z</time>
      </trkpt>
      <trkpt lat="42.79644" lon="1.40362">
        <ele>1882.68353</ele>
        <time>2024-03-06T10:48:52Z</time>
      </trkpt>
      <trkpt lat="42.7962" lon="1.40376">
        <ele>1890.92567</ele>
        <time>2024-03-06T10:49:59Z</time>
      </trkpt>
      <trkpt lat="42.79637" lon="1.40394">
        <ele>1896.78799</ele>
        <time>2024-03-06T10:51:06Z</time>
      </trkpt>
      <trkpt lat="42.79476" lon="1.40451">
        <ele>1931.91514</ele>
        <time>2024-03-06T10:55:04Z</time>
      </trkpt>
      <trkpt lat="42.79468" lon="1.40462">
        <ele>1933.45026</ele>
        <time>2024-03-06T10:55:21Z</time>
      </trkpt>
      <trkpt lat="42.79472" lon="1.4047">
        <ele>1933.84144</ele>
        <time>2024-03-06T11:05:18Z</time>
      </trkpt>
      <trkpt lat="42.79468" lon="1.40466">
        <ele>1933.68648</ele>
        <time>2024-03-06T11:05:39Z</time>
      </trkpt>
      <trkpt lat="42.79463" lon="1.40481">
        <ele>1934.07101</ele>
        <time>2024-03-06T11:07:13Z</time>
      </trkpt>
      <trkpt lat="42.79488" lon="1.40501">
        <ele>1936.65645</ele>
        <time>2024-03-06T11:07:45Z</time>
      </trkpt>
      <trkpt lat="42.79484" lon="1.40505">
        <ele>1937.63698</ele>
        <time>2024-03-06T11:07:58Z</time>
      </trkpt>
      <trkpt lat="42.79489" lon="1.40524">
        <ele>1938.67914</ele>
        <time>2024-03-06T11:09:36Z</time>
      </trkpt>
      <trkpt lat="42.79488" lon="1.40547">
        <ele>1940.49729</ele>
        <time>2024-03-06T11:10:01Z</time>
      </trkpt>
      <trkpt lat="42.79437" lon="1.40603">
        <ele>1944.74466</ele>
        <time>2024-03-06T11:11:01Z</time>
      </trkpt>
      <trkpt lat="42.79427" lon="1.40626">
        <ele>1944.7669</ele>
        <time>2024-03-06T11:11:12Z</time>
      </trkpt>
      <trkpt lat="42.79417" lon="1.40614">
        <ele>1944.497</ele>
        <time>2024-03-06T11:11:28Z</time>
      </trkpt>
      <trkpt lat="42.79346" lon="1.40623">
        <ele>1955.15547</ele>
        <time>2024-03-06T11:12:55Z</time>
      </trkpt>
      <trkpt lat="42.79324" lon="1.40599">
        <ele>1960.90578</ele>
        <time>2024-03-06T11:13:28Z</time>
      </trkpt>
      <trkpt lat="42.79273" lon="1.40562">
        <ele>1974.98495</ele>
        <time>2024-03-06T11:14:39Z</time>
      </trkpt>
      <trkpt lat="42.79253" lon="1.40539">
        <ele>1982.47204</ele>
        <time>2024-03-06T11:15:13Z</time>
      </trkpt>
      <trkpt lat="42.7924" lon="1.40614">
        <ele>1997.03094</ele>
        <time>2024-03-06T11:16:21Z</time>
      </trkpt>
      <trkpt lat="42.79223" lon="1.40661">
        <ele>2003.91632</ele>
        <time>2024-03-06T11:17:06Z</time>
      </trkpt>
      <trkpt lat="42.792" lon="1.40629">
        <ele>2012.38875</ele>
        <time>2024-03-06T11:17:55Z</time>
      </trkpt>
      <trkpt lat="42.79191" lon="1.40628">
        <ele>2013.41194</ele>
        <time>2024-03-06T11:18:11Z</time>
      </trkpt>
      <trkpt lat="42.79173" lon="1.40672">
        <ele>2023.3729</ele>
        <time>2024-03-06T11:18:56Z</time>
      </trkpt>
      <trkpt lat="42.79138" lon="1.40722">
        <ele>2033.21868</ele>
        <time>2024-03-06T11:19:59Z</time>
      </trkpt>
      <trkpt lat="42.79123" lon="1.40676">
        <ele>2045.20345</ele>
        <time>2024-03-06T11:20:43Z</time>
      </trkpt>
      <trkpt lat="42.79097" lon="1.40705">
        <ele>2057.72192</ele>
        <time>2024-03-06T11:21:24Z</time>
      </trkpt>
      <trkpt lat="42.79074" lon="1.40645">
        <ele>2067.0307</ele>
        <time>2024-03-06T11:22:21Z</time>
      </trkpt>
      <trkpt lat="42.79034" lon="1.40695">
        <ele>2074.68574</ele>
        <time>2024-03-06T11:23:21Z</time>
      </trkpt>
      <trkpt lat="42.79017" lon="1.40662">
        <ele>2078.27689</ele>
        <time>2024-03-06T11:23:57Z</time>
      </trkpt>
      <trkpt lat="42.79013" lon="1.40674">
        <ele>2082.80398</ele>
        <time>2024-03-06T11:25:38Z</time>
      </trkpt>
      <trkpt lat="42.79018" lon="1.40658">
        <ele>2086.23194</ele>
        <time>2024-03-06T11:43:01Z</time>
      </trkpt>
      <trkpt lat="42.79019" lon="1.40664">
        <ele>2086.53629</ele>
        <time>2024-03-06T11:48:53Z</time>
      </trkpt>
      <trkpt lat="42.79021" lon="1.40658">
        <ele>2086.80377</ele>
        <time>2024-03-06T12:00:15Z</time>
      </trkpt>
      <trkpt lat="42.79019" lon="1.40662">
        <ele>2086.96973</ele>
        <time>2024-03-06T12:01:45Z</time>
      </trkpt>
      <trkpt lat="42.79027" lon="1.40669">
        <ele>2086.80521</ele>
        <time>2024-03-06T12:03:02Z</time>
      </trkpt>
      <trkpt lat="42.79041" lon="1.40672">
        <ele>2086.02966</ele>
        <time>2024-03-06T12:03:05Z</time>
      </trkpt>
      <trkpt lat="42.79045" lon="1.40662">
        <ele>2085.13244</ele>
        <time>2024-03-06T12:03:07Z</time>
      </trkpt>
      <trkpt lat="42.79061" lon="1.40663">
        <ele>2081.95793</ele>
        <time>2024-03-06T12:03:11Z</time>
      </trkpt>
      <trkpt lat="42.79069" lon="1.40647">
        <ele>2077.46846</ele>
        <time>2024-03-06T12:03:16Z</time>
      </trkpt>
      <trkpt lat="42.79076" lon="1.40666">
        <ele>2073.58666</ele>
        <time>2024-03-06T12:03:19Z</time>
      </trkpt>
      <trkpt lat="42.79084" lon="1.40656">
        <ele>2070.78205</ele>
        <time>2024-03-06T12:03:21Z</time>
      </trkpt>
      <trkpt lat="42.79095" lon="1.40661">
        <ele>2066.95852</ele>
        <time>2024-03-06T12:03:25Z</time>
      </trkpt>
      <trkpt lat="42.79098" lon="1.40596">
        <ele>2059.31903</ele>
        <time>2024-03-06T12:03:40Z</time>
      </trkpt>
      <trkpt lat="42.79093" lon="1.40568">
        <ele>2056.93897</ele>
        <time>2024-03-06T12:03:47Z</time>
      </trkpt>
      <trkpt lat="42.79099" lon="1.4057">
        <ele>2056.04109</ele>
        <time>2024-03-06T12:03:49Z</time>
      </trkpt>
      <trkpt lat="42.79133" lon="1.40543">
        <ele>2043.27437</ele>
        <time>2024-03-06T12:03:59Z</time>
      </trkpt>
      <trkpt lat="42.79138" lon="1.40553">
        <ele>2040.12759</ele>
        <time>2024-03-06T12:04:01Z</time>
      </trkpt>
      <trkpt lat="42.79139" lon="1.40534">
        <ele>2036.76352</ele>
        <time>2024-03-06T12:04:51Z</time>
      </trkpt>
      <trkpt lat="42.792" lon="1.40486">
        <ele>2008.91317</ele>
        <time>2024-03-06T12:05:09Z</time>
      </trkpt>
      <trkpt lat="42.79214" lon="1.40508">
        <ele>2003.26652</ele>
        <time>2024-03-06T12:05:56Z</time>
      </trkpt>
      <trkpt lat="42.79215" lon="1.40477">
        <ele>2000.51148</ele>
        <time>2024-03-06T12:06:05Z</time>
      </trkpt>
      <trkpt lat="42.7923" lon="1.40467">
        <ele>1997.12411</ele>
        <time>2024-03-06T12:06:10Z</time>
      </trkpt>
      <trkpt lat="42.79231" lon="1.40453">
        <ele>1995.08386</ele>
        <time>2024-03-06T12:06:12Z</time>
      </trkpt>
      <trkpt lat="42.79238" lon="1.40454">
        <ele>1992.39363</ele>
        <time>2024-03-06T12:06:14Z</time>
      </trkpt>
      <trkpt lat="42.7924" lon="1.40447">
        <ele>1990.84076</ele>
        <time>2024-03-06T12:06:15Z</time>
      </trkpt>
      <trkpt lat="42.79249" lon="1.40442">
        <ele>1984.33147</ele>
        <time>2024-03-06T12:06:19Z</time>
      </trkpt>
      <trkpt lat="42.79257" lon="1.40453">
        <ele>1979.97711</ele>
        <time>2024-03-06T12:06:23Z</time>
      </trkpt>
      <trkpt lat="42.79275" lon="1.40452">
        <ele>1973.80793</ele>
        <time>2024-03-06T12:06:28Z</time>
      </trkpt>
      <trkpt lat="42.79284" lon="1.4047">
        <ele>1969.90546</ele>
        <time>2024-03-06T12:06:31Z</time>
      </trkpt>
      <trkpt lat="42.79298" lon="1.40476">
        <ele>1966.11665</ele>
        <time>2024-03-06T12:06:34Z</time>
      </trkpt>
      <trkpt lat="42.79339" lon="1.40529">
        <ele>1957.44207</ele>
        <time>2024-03-06T12:06:44Z</time>
      </trkpt>
      <trkpt lat="42.79345" lon="1.40521">
        <ele>1955.94147</ele>
        <time>2024-03-06T12:06:46Z</time>
      </trkpt>
      <trkpt lat="42.79363" lon="1.40534">
        <ele>1950.93721</ele>
        <time>2024-03-06T12:06:59Z</time>
      </trkpt>
      <trkpt lat="42.7942" lon="1.40536">
        <ele>1942.47862</ele>
        <time>2024-03-06T12:07:06Z</time>
      </trkpt>
      <trkpt lat="42.79426" lon="1.40546">
        <ele>1941.47392</ele>
        <time>2024-03-06T12:07:08Z</time>
      </trkpt>
      <trkpt lat="42.79436" lon="1.40544">
        <ele>1940.82339</ele>
        <time>2024-03-06T12:07:32Z</time>
      </trkpt>
      <trkpt lat="42.79487" lon="1.4056">
        <ele>1943.9887</ele>
        <time>2024-03-06T12:08:54Z</time>
      </trkpt>
      <trkpt lat="42.79494" lon="1.40505">
        <ele>1943.9041</ele>
        <time>2024-03-06T12:09:47Z</time>
      </trkpt>
      <trkpt lat="42.79497" lon="1.40517">
        <ele>1944.0059</ele>
        <time>2024-03-06T12:10:21Z</time>
      </trkpt>
      <trkpt lat="42.79508" lon="1.40517">
        <ele>1943.67977</ele>
        <time>2024-03-06T12:10:55Z</time>
      </trkpt>
      <trkpt lat="42.79506" lon="1.40509">
        <ele>1943.56927</ele>
        <time>2024-03-06T12:24:27Z</time>
      </trkpt>
      <trkpt lat="42.79511" lon="1.40518">
        <ele>1943.54205</ele>
        <time>2024-03-06T12:29:47Z</time>
      </trkpt>
      <trkpt lat="42.79494" lon="1.40513">
        <ele>1943.00387</ele>
        <time>2024-03-06T12:37:07Z</time>
      </trkpt>
      <trkpt lat="42.79494" lon="1.40501">
        <ele>1943.1644</ele>
        <time>2024-03-06T12:39:59Z</time>
      </trkpt>
      <trkpt lat="42.79479" lon="1.4047">
        <ele>1942.85318</ele>
        <time>2024-03-06T12:41:14Z</time>
      </trkpt>
      <trkpt lat="42.79483" lon="1.4046">
        <ele>1942.08475</ele>
        <time>2024-03-06T12:41:17Z</time>
      </trkpt>
      <trkpt lat="42.79474" lon="1.40446">
        <ele>1940.05905</ele>
        <time>2024-03-06T12:41:21Z</time>
      </trkpt>
      <trkpt lat="42.79518" lon="1.4044">
        <ele>1934.03725</ele>
        <time>2024-03-06T12:41:43Z</time>
      </trkpt>
      <trkpt lat="42.79595" lon="1.40414">
        <ele>1920.00404</ele>
        <time>2024-03-06T12:42:25Z</time>
      </trkpt>
      <trkpt lat="42.79637" lon="1.40387">
        <ele>1909.44273</ele>
        <time>2024-03-06T12:43:01Z</time>
      </trkpt>
      <trkpt lat="42.79638" lon="1.40375">
        <ele>1905.89661</ele>
        <time>2024-03-06T12:43:04Z</time>
      </trkpt>
      <trkpt lat="42.79633" lon="1.40361">
        <ele>1899.52687</ele>
        <time>2024-03-06T12:43:08Z</time>
      </trkpt>
      <trkpt lat="42.79648" lon="1.40313">
        <ele>1877.72567</ele>
        <time>2024-03-06T12:43:24Z</time>
      </trkpt>
      <trkpt lat="42.79645" lon="1.40306">
        <ele>1874.06113</ele>
        <time>2024-03-06T12:43:26Z</time>
      </trkpt>
      <trkpt lat="42.79637" lon="1.40305">
        <ele>1872.40972</ele>
        <time>2024-03-06T12:43:27Z</time>
      </trkpt>
      <trkpt lat="42.79635" lon="1.40291">
        <ele>1867.82473</ele>
        <time>2024-03-06T12:43:58Z</time>
      </trkpt>
      <trkpt lat="42.79628" lon="1.4029">
        <ele>1863.92675</ele>
        <time>2024-03-06T12:44:08Z</time>
      </trkpt>
      <trkpt lat="42.79586" lon="1.40293">
        <ele>1853.70457</ele>
        <time>2024-03-06T12:44:21Z</time>
      </trkpt>
      <trkpt lat="42.79578" lon="1.40277">
        <ele>1849.38079</ele>
        <time>2024-03-06T12:44:24Z</time>
      </trkpt>
      <trkpt lat="42.79587" lon="1.40252">
        <ele>1838.75539</ele>
        <time>2024-03-06T12:44:30Z</time>
      </trkpt>
      <trkpt lat="42.79583" lon="1.40224">
        <ele>1826.29481</ele>
        <time>2024-03-06T12:44:36Z</time>
      </trkpt>
      <trkpt lat="42.79586" lon="1.40207">
        <ele>1819.85876</ele>
        <time>2024-03-06T12:44:40Z</time>
      </trkpt>
      <trkpt lat="42.79583" lon="1.40181">
        <ele>1809.9955</ele>
        <time>2024-03-06T12:44:54Z</time>
      </trkpt>
      <trkpt lat="42.79588" lon="1.40173">
        <ele>1807.13418</ele>
        <time>2024-03-06T12:47:32Z</time>
      </trkpt>
      <trkpt lat="42.79583" lon="1.40159">
        <ele>1805.21426</ele>
        <time>2024-03-06T12:47:36Z</time>
      </trkpt>
      <trkpt lat="42.79605" lon="1.40138">
        <ele>1797.04267</ele>
        <time>2024-03-06T12:47:44Z</time>
      </trkpt>
      <trkpt lat="42.79606" lon="1.40046">
        <ele>1774.60839</ele>
        <time>2024-03-06T12:47:55Z</time>
      </trkpt>
      <trkpt lat="42.79592" lon="1.40038">
        <ele>1768.3189</ele>
        <time>2024-03-06T12:49:00Z</time>
      </trkpt>
      <trkpt lat="42.7958" lon="1.40013">
        <ele>1763.0827</ele>
        <time>2024-03-06T12:49:04Z</time>
      </trkpt>
      <trkpt lat="42.79559" lon="1.39997">
        <ele>1757.93788</ele>
        <time>2024-03-06T12:49:08Z</time>
      </trkpt>
      <trkpt lat="42.79549" lon="1.4">
        <ele>1755.54363</ele>
        <time>2024-03-06T12:49:11Z</time>
      </trkpt>
      <trkpt lat="42.79532" lon="1.39992">
        <ele>1752.4571</ele>
        <time>2024-03-06T12:49:14Z</time>
      </trkpt>
      <trkpt lat="42.7952" lon="1.39983">
        <ele>1750.11647</ele>
        <time>2024-03-06T12:49:16Z</time>
      </trkpt>
      <trkpt lat="42.79507" lon="1.39962">
        <ele>1746.85135</ele>
        <time>2024-03-06T12:49:27Z</time>
      </trkpt>
      <trkpt lat="42.79489" lon="1.39952">
        <ele>1737.8314</ele>
        <time>2024-03-06T12:50:29Z</time>
      </trkpt>
      <trkpt lat="42.79476" lon="1.39956">
        <ele>1735.12966</ele>
        <time>2024-03-06T12:50:39Z</time>
      </trkpt>
      <trkpt lat="42.79457" lon="1.39976">
        <ele>1730.38325</ele>
        <time>2024-03-06T12:50:45Z</time>
      </trkpt>
      <trkpt lat="42.79433" lon="1.3997">
        <ele>1726.67273</ele>
        <time>2024-03-06T12:50:52Z</time>
      </trkpt>
      <trkpt lat="42.79429" lon="1.39964">
        <ele>1725.18866</ele>
        <time>2024-03-06T12:50:54Z</time>
      </trkpt>
      <trkpt lat="42.79437" lon="1.39941">
        <ele>1719.64161</ele>
        <time>2024-03-06T12:50:58Z</time>
      </trkpt>
      <trkpt lat="42.79441" lon="1.39906">
        <ele>1710.72077</ele>
        <time>2024-03-06T12:51:02Z</time>
      </trkpt>
      <trkpt lat="42.79435" lon="1.39845">
        <ele>1697.21649</ele>
        <time>2024-03-06T12:51:09Z</time>
      </trkpt>
      <trkpt lat="42.79431" lon="1.39847">
        <ele>1696.35261</ele>
        <time>2024-03-06T12:51:10Z</time>
      </trkpt>
      <trkpt lat="42.79425" lon="1.39834">
        <ele>1694.42635</ele>
        <time>2024-03-06T12:53:03Z</time>
      </trkpt>
      <trkpt lat="42.79403" lon="1.39834">
        <ele>1691.34514</ele>
        <time>2024-03-06T12:53:07Z</time>
      </trkpt>
      <trkpt lat="42.79377" lon="1.39818">
        <ele>1687.01084</ele>
        <time>2024-03-06T12:53:23Z</time>
      </trkpt>
      <trkpt lat="42.79335" lon="1.3978">
        <ele>1680.67159</ele>
        <time>2024-03-06T12:53:45Z</time>
      </trkpt>
      <trkpt lat="42.79359" lon="1.39725">
        <ele>1667.78051</ele>
        <time>2024-03-06T12:53:55Z</time>
      </trkpt>
      <trkpt lat="42.79371" lon="1.39719">
        <ele>1661.41501</ele>
        <time>2024-03-06T12:53:57Z</time>
      </trkpt>
      <trkpt lat="42.79384" lon="1.39675">
        <ele>1653.30653</ele>
        <time>2024-03-06T12:54:03Z</time>
      </trkpt>
      <trkpt lat="42.79414" lon="1.39628">
        <ele>1647.10189</ele>
        <time>2024-03-06T12:54:10Z</time>
      </trkpt>
      <trkpt lat="42.79411" lon="1.39628">
        <ele>1645.45171</ele>
        <time>2024-03-06T12:54:24Z</time>
      </trkpt>
      <trkpt lat="42.79405" lon="1.39639">
        <ele>1644.77718</ele>
        <time>2024-03-06T13:02:25Z</time>
      </trkpt>
      <trkpt lat="42.79409" lon="1.3964">
        <ele>1644.80669</ele>
        <time>2024-03-06T13:04:50Z</time>
      </trkpt>
      <trkpt lat="42.79406" lon="1.39699">
        <ele>1647.12121</ele>
        <time>2024-03-06T13:06:06Z</time>
      </trkpt>
      <trkpt lat="42.79385" lon="1.39782">
        <ele>1671.06811</ele>
        <time>2024-03-06T13:08:05Z</time>
      </trkpt>
      <trkpt lat="42.79405" lon="1.39819">
        <ele>1679.83512</ele>
        <time>2024-03-06T13:09:03Z</time>
      </trkpt>
      <trkpt lat="42.79429" lon="1.39827">
        <ele>1684.27667</ele>
        <time>2024-03-06T13:09:43Z</time>
      </trkpt>
      <trkpt lat="42.79444" lon="1.39866">
        <ele>1692.0801</ele>
        <time>2024-03-06T13:10:38Z</time>
      </trkpt>
      <trkpt lat="42.79467" lon="1.39897">
        <ele>1698.07359</ele>
        <time>2024-03-06T13:11:29Z</time>
      </trkpt>
      <trkpt lat="42.79471" lon="1.39932">
        <ele>1708.87412</ele>
        <time>2024-03-06T13:12:09Z</time>
      </trkpt>
      <trkpt lat="42.79486" lon="1.39926">
        <ele>1712.96871</ele>
        <time>2024-03-06T13:12:37Z</time>
      </trkpt>
      <trkpt lat="42.79492" lon="1.39915">
        <ele>1717.02008</ele>
        <time>2024-03-06T13:12:57Z</time>
      </trkpt>
      <trkpt lat="42.79496" lon="1.39937">
        <ele>1723.02638</ele>
        <time>2024-03-06T13:13:27Z</time>
      </trkpt>
      <trkpt lat="42.79489" lon="1.3996">
        <ele>1729.51555</ele>
        <time>2024-03-06T13:14:22Z</time>
      </trkpt>
      <trkpt lat="42.7951" lon="1.39962">
        <ele>1740.96523</ele>
        <time>2024-03-06T13:15:10Z</time>
      </trkpt>
      <trkpt lat="42.79508" lon="1.39968">
        <ele>1743.03951</ele>
        <time>2024-03-06T13:15:19Z</time>
      </trkpt>
      <trkpt lat="42.79525" lon="1.39978">
        <ele>1745.15502</ele>
        <time>2024-03-06T13:15:41Z</time>
      </trkpt>
      <trkpt lat="42.79525" lon="1.39988">
        <ele>1745.54639</ele>
        <time>2024-03-06T13:15:49Z</time>
      </trkpt>
      <trkpt lat="42.79539" lon="1.39998">
        <ele>1747.4257</ele>
        <time>2024-03-06T13:16:04Z</time>
      </trkpt>
      <trkpt lat="42.79568" lon="1.40002">
        <ele>1751.95195</ele>
        <time>2024-03-06T13:16:50Z</time>
      </trkpt>
      <trkpt lat="42.79584" lon="1.40016">
        <ele>1755.08285</ele>
        <time>2024-03-06T13:17:15Z</time>
      </trkpt>
      <trkpt lat="42.79612" lon="1.4001">
        <ele>1757.18963</ele>
        <time>2024-03-06T13:19:11Z</time>
      </trkpt>
      <trkpt lat="42.79661" lon="1.4003">
        <ele>1761.89684</ele>
        <time>2024-03-06T13:23:26Z</time>
      </trkpt>
      <trkpt lat="42.7969" lon="1.4002">
        <ele>1768.13802</ele>
        <time>2024-03-06T13:23:57Z</time>
      </trkpt>
      <trkpt lat="42.79703" lon="1.39998">
        <ele>1769.42856</ele>
        <time>2024-03-06T13:24:27Z</time>
      </trkpt>
      <trkpt lat="42.79731" lon="1.39996">
        <ele>1773.25326</ele>
        <time>2024-03-06T13:25:09Z</time>
      </trkpt>
      <trkpt lat="42.79723" lon="1.40016">
        <ele>1778.21147</ele>
        <time>2024-03-06T13:26:41Z</time>
      </trkpt>
      <trkpt lat="42.79726" lon="1.40029">
        <ele>1781.33009</ele>
        <time>2024-03-06T13:27:01Z</time>
      </trkpt>
      <trkpt lat="42.79728" lon="1.40023">
        <ele>1783.38791</ele>
        <time>2024-03-06T13:27:09Z</time>
      </trkpt>
      <trkpt lat="42.79732" lon="1.40025">
        <ele>1785.01666</ele>
        <time>2024-03-06T13:27:29Z</time>
      </trkpt>
      <trkpt lat="42.79735" lon="1.40044">
        <ele>1788.57709</ele>
        <time>2024-03-06T13:27:51Z</time>
      </trkpt>
      <trkpt lat="42.79755" lon="1.40072">
        <ele>1795.42176</ele>
        <time>2024-03-06T13:28:42Z</time>
      </trkpt>
      <trkpt lat="42.79756" lon="1.40064">
        <ele>1797.54206</ele>
        <time>2024-03-06T13:28:54Z</time>
      </trkpt>
      <trkpt lat="42.79772" lon="1.40084">
        <ele>1802.75392</ele>
        <time>2024-03-06T13:29:40Z</time>
      </trkpt>
      <trkpt lat="42.79812" lon="1.40088">
        <ele>1809.93191</ele>
        <time>2024-03-06T13:30:44Z</time>
      </trkpt>
      <trkpt lat="42.79869" lon="1.40144">
        <ele>1816.31212</ele>
        <time>2024-03-06T13:45:14Z</time>
      </trkpt>
      <trkpt lat="42.79879" lon="1.40146">
        <ele>1815.47663</ele>
        <time>2024-03-06T13:45:54Z</time>
      </trkpt>
      <trkpt lat="42.79903" lon="1.40193">
        <ele>1793.34421</ele>
        <time>2024-03-06T13:46:13Z</time>
      </trkpt>
      <trkpt lat="42.79902" lon="1.402">
        <ele>1790.3212</ele>
        <time>2024-03-06T13:46:14Z</time>
      </trkpt>
      <trkpt lat="42.79916" lon="1.4024">
        <ele>1780.24371</ele>
        <time>2024-03-06T13:46:20Z</time>
      </trkpt>
      <trkpt lat="42.7993" lon="1.40253">
        <ele>1775.99996</ele>
        <time>2024-03-06T13:46:23Z</time>
      </trkpt>
      <trkpt lat="42.79935" lon="1.40275">
        <ele>1768.05861</ele>
        <time>2024-03-06T13:47:13Z</time>
      </trkpt>
      <trkpt lat="42.79942" lon="1.40271">
        <ele>1765.95558</ele>
        <time>2024-03-06T13:47:15Z</time>
      </trkpt>
      <trkpt lat="42.79956" lon="1.40277">
        <ele>1761.67738</ele>
        <time>2024-03-06T13:47:19Z</time>
      </trkpt>
      <trkpt lat="42.79959" lon="1.40291">
        <ele>1758.78348</ele>
        <time>2024-03-06T13:47:21Z</time>
      </trkpt>
      <trkpt lat="42.79974" lon="1.40289">
        <ele>1754.28437</ele>
        <time>2024-03-06T13:47:25Z</time>
      </trkpt>
      <trkpt lat="42.7998" lon="1.40294">
        <ele>1752.7572</ele>
        <time>2024-03-06T13:47:27Z</time>
      </trkpt>
      <trkpt lat="42.79993" lon="1.40276">
        <ele>1745.69901</ele>
        <time>2024-03-06T13:47:49Z</time>
      </trkpt>
      <trkpt lat="42.79991" lon="1.4027">
        <ele>1743.7646</ele>
        <time>2024-03-06T13:48:44Z</time>
      </trkpt>
      <trkpt lat="42.80006" lon="1.40287">
        <ele>1736.64661</ele>
        <time>2024-03-06T13:48:52Z</time>
      </trkpt>
      <trkpt lat="42.80038" lon="1.4029">
        <ele>1718.10719</ele>
        <time>2024-03-06T13:49:01Z</time>
      </trkpt>
      <trkpt lat="42.80035" lon="1.40303">
        <ele>1715.5366</ele>
        <time>2024-03-06T13:49:02Z</time>
      </trkpt>
      <trkpt lat="42.80047" lon="1.40325">
        <ele>1712.82559</ele>
        <time>2024-03-06T13:49:08Z</time>
      </trkpt>
      <trkpt lat="42.80048" lon="1.40339">
        <ele>1710.8976</ele>
        <time>2024-03-06T13:49:12Z</time>
      </trkpt>
      <trkpt lat="42.80051" lon="1.40344">
        <ele>1709.93802</ele>
        <time>2024-03-06T13:49:14Z</time>
      </trkpt>
      <trkpt lat="42.80058" lon="1.40335">
        <ele>1707.69187</ele>
        <time>2024-03-06T13:49:35Z</time>
      </trkpt>
      <trkpt lat="42.80062" lon="1.40339">
        <ele>1706.84591</ele>
        <time>2024-03-06T13:50:01Z</time>
      </trkpt>
      <trkpt lat="42.80058" lon="1.40325">
        <ele>1705.65317</ele>
        <time>2024-03-06T13:50:08Z</time>
      </trkpt>
      <trkpt lat="42.80057" lon="1.40337">
        <ele>1705.25906</ele>
        <time>2024-03-06T13:50:29Z</time>
      </trkpt>
      <trkpt lat="42.80065" lon="1.40357">
        <ele>1704.2887</ele>
        <time>2024-03-06T13:50:38Z</time>
      </trkpt>
      <trkpt lat="42.80144" lon="1.40369">
        <ele>1676.77435</ele>
        <time>2024-03-06T13:50:57Z</time>
      </trkpt>
      <trkpt lat="42.80207" lon="1.40338">
        <ele>1658.25913</ele>
        <time>2024-03-06T13:51:06Z</time>
      </trkpt>
      <trkpt lat="42.80212" lon="1.40325">
        <ele>1655.49559</ele>
        <time>2024-03-06T13:51:14Z</time>
      </trkpt>
      <trkpt lat="42.80212" lon="1.40334">
        <ele>1654.86362</ele>
        <time>2024-03-06T13:52:03Z</time>
      </trkpt>
      <trkpt lat="42.80222" lon="1.4034">
        <ele>1653.21585</ele>
        <time>2024-03-06T13:52:05Z</time>
      </trkpt>
      <trkpt lat="42.80229" lon="1.40315">
        <ele>1650.64334</ele>
        <time>2024-03-06T13:52:17Z</time>
      </trkpt>
      <trkpt lat="42.80244" lon="1.40312">
        <ele>1649.05823</ele>
        <time>2024-03-06T13:52:20Z</time>
      </trkpt>
      <trkpt lat="42.80267" lon="1.40293">
        <ele>1640.97732</ele>
        <time>2024-03-06T13:52:25Z</time>
      </trkpt>
      <trkpt lat="42.80277" lon="1.40294">
        <ele>1635.91832</ele>
        <time>2024-03-06T13:52:27Z</time>
      </trkpt>
      <trkpt lat="42.80289" lon="1.40307">
        <ele>1627.60016</ele>
        <time>2024-03-06T13:52:30Z</time>
      </trkpt>
      <trkpt lat="42.80295" lon="1.40296">
        <ele>1623.43329</ele>
        <time>2024-03-06T13:52:32Z</time>
      </trkpt>
      <trkpt lat="42.80297" lon="1.40321">
        <ele>1616.48732</ele>
        <time>2024-03-06T13:53:37Z</time>
      </trkpt>
      <trkpt lat="42.80308" lon="1.403">
        <ele>1612.9727</ele>
        <time>2024-03-06T13:54:07Z</time>
      </trkpt>
      <trkpt lat="42.80321" lon="1.40297">
        <ele>1609.12788</ele>
        <time>2024-03-06T13:54:13Z</time>
      </trkpt>
      <trkpt lat="42.80327" lon="1.40284">
        <ele>1604.0358</ele>
        <time>2024-03-06T13:54:16Z</time>
      </trkpt>
      <trkpt lat="42.80325" lon="1.40276">
        <ele>1601.92728</ele>
        <time>2024-03-06T13:54:17Z</time>
      </trkpt>
      <trkpt lat="42.80335" lon="1.40263">
        <ele>1596.29232</ele>
        <time>2024-03-06T13:54:20Z</time>
      </trkpt>
      <trkpt lat="42.80353" lon="1.40248">
        <ele>1584.75657</ele>
        <time>2024-03-06T13:54:24Z</time>
      </trkpt>
      <trkpt lat="42.80369" lon="1.40252">
        <ele>1577.85115</ele>
        <time>2024-03-06T13:54:27Z</time>
      </trkpt>
      <trkpt lat="42.80375" lon="1.40241">
        <ele>1573.37195</ele>
        <time>2024-03-06T13:54:29Z</time>
      </trkpt>
      <trkpt lat="42.80394" lon="1.40283">
        <ele>1563.95989</ele>
        <time>2024-03-06T13:54:37Z</time>
      </trkpt>
      <trkpt lat="42.80398" lon="1.40288">
        <ele>1563.03938</ele>
        <time>2024-03-06T13:54:39Z</time>
      </trkpt>
      <trkpt lat="42.80396" lon="1.40269">
        <ele>1558.9837</ele>
        <time>2024-03-06T13:55:16Z</time>
      </trkpt>
      <trkpt lat="42.80419" lon="1.403">
        <ele>1555.82675</ele>
        <time>2024-03-06T13:56:14Z</time>
      </trkpt>
      <trkpt lat="42.80423" lon="1.40298">
        <ele>1554.81477</ele>
        <time>2024-03-06T13:56:19Z</time>
      </trkpt>
      <trkpt lat="42.80424" lon="1.40266">
        <ele>1551.27563</ele>
        <time>2024-03-06T13:56:25Z</time>
      </trkpt>
      <trkpt lat="42.80442" lon="1.40277">
        <ele>1545.29026</ele>
        <time>2024-03-06T13:56:37Z</time>
      </trkpt>
      <trkpt lat="42.80445" lon="1.40286">
        <ele>1542.74036</ele>
        <time>2024-03-06T13:56:41Z</time>
      </trkpt>
      <trkpt lat="42.80455" lon="1.40264">
        <ele>1534.76546</ele>
        <time>2024-03-06T13:56:55Z</time>
      </trkpt>
      <trkpt lat="42.80476" lon="1.40307">
        <ele>1525.12297</ele>
        <time>2024-03-06T13:57:12Z</time>
      </trkpt>
      <trkpt lat="42.80474" lon="1.40341">
        <ele>1519.79801</ele>
        <time>2024-03-06T13:57:23Z</time>
      </trkpt>
      <trkpt lat="42.80479" lon="1.40346">
        <ele>1518.66993</ele>
        <time>2024-03-06T13:57:35Z</time>
      </trkpt>
      <trkpt lat="42.80473" lon="1.40349">
        <ele>1518.79005</ele>
        <time>2024-03-06T13:58:07Z</time>
      </trkpt>
      <trkpt lat="42.80481" lon="1.40351">
        <ele>1518.24384</ele>
        <time>2024-03-06T13:58:13Z</time>
      </trkpt>
      <trkpt lat="42.80487" lon="1.40335">
        <ele>1516.84533</ele>
        <time>2024-03-06T13:58:16Z</time>
      </trkpt>
      <trkpt lat="42.80491" lon="1.40338">
        <ele>1516.23761</ele>
        <time>2024-03-06T13:58:17Z</time>
      </trkpt>
      <trkpt lat="42.80493" lon="1.40358">
        <ele>1512.26216</ele>
        <time>2024-03-06T13:58:22Z</time>
      </trkpt>
      <trkpt lat="42.80503" lon="1.40358">
        <ele>1505.4263</ele>
        <time>2024-03-06T13:58:27Z</time>
      </trkpt>
      <trkpt lat="42.80504" lon="1.40397">
        <ele>1496.67966</ele>
        <time>2024-03-06T13:58:35Z</time>
      </trkpt>
      <trkpt lat="42.80514" lon="1.40382">
        <ele>1494.34692</ele>
        <time>2024-03-06T13:58:48Z</time>
      </trkpt>
      <trkpt lat="42.80532" lon="1.40371">
        <ele>1487.33561</ele>
        <time>2024-03-06T13:59:04Z</time>
      </trkpt>
      <trkpt lat="42.80546" lon="1.40329">
        <ele>1479.59187</ele>
        <time>2024-03-06T13:59:15Z</time>
      </trkpt>
      <trkpt lat="42.80562" lon="1.40321">
        <ele>1475.01189</ele>
        <time>2024-03-06T13:59:19Z</time>
      </trkpt>
      <trkpt lat="42.80566" lon="1.40287">
        <ele>1468.70796</ele>
        <time>2024-03-06T13:59:24Z</time>
      </trkpt>
      <trkpt lat="42.80581" lon="1.40257">
        <ele>1461.43015</ele>
        <time>2024-03-06T13:59:30Z</time>
      </trkpt>
      <trkpt lat="42.8058" lon="1.40211">
        <ele>1456.66058</ele>
        <time>2024-03-06T13:59:35Z</time>
      </trkpt>
      <trkpt lat="42.80563" lon="1.40158">
        <ele>1453.35329</ele>
        <time>2024-03-06T13:59:40Z</time>
      </trkpt>
      <trkpt lat="42.80551" lon="1.40086">
        <ele>1449.73252</ele>
        <time>2024-03-06T13:59:49Z</time>
      </trkpt>
      <trkpt lat="42.80546" lon="1.40006">
        <ele>1444.82626</ele>
        <time>2024-03-06T13:59:59Z</time>
      </trkpt>
      <trkpt lat="42.80557" lon="1.39943">
        <ele>1441.10576</ele>
        <time>2024-03-06T14:00:10Z</time>
      </trkpt>
      <trkpt lat="42.80582" lon="1.39896">
        <ele>1439.37777</ele>
        <time>2024-03-06T14:03:53Z</time>
      </trkpt>
      <trkpt lat="42.80576" lon="1.39778">
        <ele>1441.98459</ele>
        <time>2024-03-06T14:05:29Z</time>
      </trkpt>
      <trkpt lat="42.80597" lon="1.39724">
        <ele>1443.23879</ele>
        <time>2024-03-06T14:05:55Z</time>
      </trkpt>
      <trkpt lat="42.80579" lon="1.39677">
        <ele>1442.93825</ele>
        <time>2024-03-06T14:08:32Z</time>
      </trkpt>
      <trkpt lat="42.80578" lon="1.39651">
        <ele>1442.15158</ele>
        <time>2024-03-06T14:08:37Z</time>
      </trkpt>
      <trkpt lat="42.80554" lon="1.39586">
        <ele>1432.73702</ele>
        <time>2024-03-06T14:08:51Z</time>
      </trkpt>
      <trkpt lat="42.80554" lon="1.39546">
        <ele>1425.67868</ele>
        <time>2024-03-06T14:08:55Z</time>
      </trkpt>
      <trkpt lat="42.80566" lon="1.39501">
        <ele>1420.95211</ele>
        <time>2024-03-06T14:09:03Z</time>
      </trkpt>
      <trkpt lat="42.80571" lon="1.39501">
        <ele>1419.82483</ele>
        <time>2024-03-06T14:09:05Z</time>
      </trkpt>
      <trkpt lat="42.80589" lon="1.39424">
        <ele>1414.09461</ele>
        <time>2024-03-06T14:09:16Z</time>
      </trkpt>
      <trkpt lat="42.80585" lon="1.39418">
        <ele>1413.15194</ele>
        <time>2024-03-06T14:09:24Z</time>
      </trkpt>
      <trkpt lat="42.80588" lon="1.39402">
        <ele>1411.8635</ele>
        <time>2024-03-06T14:09:28Z</time>
      </trkpt>
      <trkpt lat="42.80595" lon="1.39397">
        <ele>1409.01051</ele>
        <time>2024-03-06T14:09:30Z</time>
      </trkpt>
      <trkpt lat="42.80604" lon="1.39362">
        <ele>1403.67101</ele>
        <time>2024-03-06T14:09:34Z</time>
      </trkpt>
      <trkpt lat="42.80631" lon="1.39314">
        <ele>1396.67992</ele>
        <time>2024-03-06T14:09:43Z</time>
      </trkpt>
      <trkpt lat="42.80649" lon="1.39244">
        <ele>1387.25192</ele>
        <time>2024-03-06T14:09:53Z</time>
      </trkpt>
      <trkpt lat="42.80663" lon="1.39212">
        <ele>1382.47532</ele>
        <time>2024-03-06T14:09:57Z</time>
      </trkpt>
      <trkpt lat="42.80672" lon="1.39212">
        <ele>1378.53646</ele>
        <time>2024-03-06T14:10:02Z</time>
      </trkpt>
      <trkpt lat="42.80672" lon="1.3922">
        <ele>1377.19123</ele>
        <time>2024-03-06T14:10:19Z</time>
      </trkpt>
      <trkpt lat="42.80684" lon="1.39211">
        <ele>1376.3137</ele>
        <time>2024-03-06T14:10:32Z</time>
      </trkpt>
      <trkpt lat="42.80694" lon="1.39108">
        <ele>1365.39936</ele>
        <time>2024-03-06T14:10:47Z</time>
      </trkpt>
      <trkpt lat="42.80723" lon="1.39049">
        <ele>1360.10749</ele>
        <time>2024-03-06T14:10:57Z</time>
      </trkpt>
      <trkpt lat="42.8073" lon="1.39021">
        <ele>1358.46997</ele>
        <time>2024-03-06T14:11:01Z</time>
      </trkpt>
      <trkpt lat="42.80726" lon="1.38971">
        <ele>1355.17595</ele>
        <time>2024-03-06T14:11:08Z</time>
      </trkpt>
      <trkpt lat="42.80735" lon="1.38931">
        <ele>1352.48013</ele>
        <time>2024-03-06T14:11:14Z</time>
      </trkpt>
      <trkpt lat="42.8075" lon="1.38897">
        <ele>1349.68957</ele>
        <time>2024-03-06T14:11:19Z</time>
      </trkpt>
      <trkpt lat="42.80769" lon="1.38876">
        <ele>1346.96073</ele>
        <time>2024-03-06T14:11:23Z</time>
      </trkpt>
      <trkpt lat="42.80784" lon="1.38802">
        <ele>1340.50917</ele>
        <time>2024-03-06T14:11:36Z</time>
      </trkpt>
      <trkpt lat="42.80817" lon="1.38761">
        <ele>1336.79146</ele>
        <time>2024-03-06T14:11:45Z</time>
      </trkpt>
      <trkpt lat="42.80821" lon="1.38748">
        <ele>1335.75688</ele>
        <time>2024-03-06T14:11:47Z</time>
      </trkpt>
      <trkpt lat="42.80825" lon="1.38717">
        <ele>1333.45615</ele>
        <time>2024-03-06T14:11:51Z</time>
      </trkpt>
      <trkpt lat="42.80819" lon="1.38697">
        <ele>1331.815</ele>
        <time>2024-03-06T14:11:54Z</time>
      </trkpt>
      <trkpt lat="42.80778" lon="1.38667">
        <ele>1327.60142</ele>
        <time>2024-03-06T14:12:02Z</time>
      </trkpt>
      <trkpt lat="42.80763" lon="1.38643">
        <ele>1325.78302</ele>
        <time>2024-03-06T14:12:06Z</time>
      </trkpt>
      <trkpt lat="42.80755" lon="1.38604">
        <ele>1323.11856</ele>
        <time>2024-03-06T14:12:11Z</time>
      </trkpt>
      <trkpt lat="42.80762" lon="1.3857">
        <ele>1321.1571</ele>
        <time>2024-03-06T14:12:15Z</time>
      </trkpt>
      <trkpt lat="42.80735" lon="1.38522">
        <ele>1316.86681</ele>
        <time>2024-03-06T14:12:23Z</time>
      </trkpt>
      <trkpt lat="42.80733" lon="1.38502">
        <ele>1315.26143</ele>
        <time>2024-03-06T14:12:26Z</time>
      </trkpt>
      <trkpt lat="42.80752" lon="1.38467">
        <ele>1310.6959</ele>
        <time>2024-03-06T14:12:30Z</time>
      </trkpt>
      <trkpt lat="42.80765" lon="1.38419">
        <ele>1301.92749</ele>
        <time>2024-03-06T14:12:38Z</time>
      </trkpt>
      <trkpt lat="42.80817" lon="1.38347">
        <ele>1301.48795</ele>
        <time>2024-03-06T14:13:51Z</time>
      </trkpt>
      <trkpt lat="42.8082" lon="1.38236">
        <ele>1301.98227</ele>
        <time>2024-03-06T14:15:18Z</time>
      </trkpt>
      <trkpt lat="42.80829" lon="1.3819">
        <ele>1302.27136</ele>
        <time>2024-03-06T14:15:53Z</time>
      </trkpt>
      <trkpt lat="42.80832" lon="1.38129">
        <ele>1302.1999</ele>
        <time>2024-03-06T14:16:25Z</time>
      </trkpt>
      <trkpt lat="42.80844" lon="1.38105">
        <ele>1302.40641</ele>
        <time>2024-03-06T14:16:51Z</time>
      </trkpt>
      <trkpt lat="42.80845" lon="1.38078">
        <ele>1302.53254</ele>
        <time>2024-03-06T14:17:23Z</time>
      </trkpt>
      <trkpt lat="42.80838" lon="1.38067">
        <ele>1302.51546</ele>
        <time>2024-03-06T14:17:33Z</time>
      </trkpt>
      <trkpt lat="42.80843" lon="1.38059">
        <ele>1302.43435</ele>
        <time>2024-03-06T14:18:14Z</time>
      </trkpt>
      <trkpt lat="42.80847" lon="1.38063">
        <ele>1302.534</ele>
        <time>2024-03-06T14:19:51Z</time>
      </trkpt>
    </trkseg>
  </trk>
</gpx>